createdAt,value
2018-09-28T00:02:13.649Z,17.16
2018-09-28T00:04:40.294Z,17.16
2018-09-28T00:07:06.933Z,17.12
2018-09-28T00:09:33.603Z,17.13
2018-09-28T00:12:00.385Z,17.15
2018-09-28T00:14:27.038Z,17.11
2018-09-28T00:16:53.689Z,17.16
2018-09-28T00:19:20.342Z,17.12
2018-09-28T00:21:47.006Z,17.17
2018-09-28T00:24:13.701Z,17.15
2018-09-28T00:26:40.316Z,17.21
2018-09-28T00:29:06.973Z,17.23
2018-09-28T00:31:33.694Z,17.26
2018-09-28T00:34:00.347Z,17.27
2018-09-28T00:36:26.998Z,17.29
2018-09-28T00:38:53.652Z,17.35
2018-09-28T00:41:20.297Z,17.42
2018-09-28T00:43:46.948Z,17.39
2018-09-28T00:46:13.607Z,17.38
2018-09-28T00:48:43.228Z,17.44
2018-09-28T00:51:09.885Z,17.46
2018-09-28T00:53:36.605Z,17.46
2018-09-28T00:56:03.289Z,17.42
2018-09-28T00:58:29.933Z,17.46
2018-09-28T01:00:56.687Z,17.46
2018-09-28T01:03:23.342Z,17.42
2018-09-28T01:05:49.983Z,17.50
2018-09-28T01:08:21.326Z,17.48
2018-09-28T01:10:46.342Z,17.44
2018-09-28T01:13:12.987Z,17.40
2018-09-28T01:15:39.655Z,17.41
2018-09-28T01:18:06.280Z,17.43
2018-09-28T01:20:32.919Z,17.43
2018-09-28T01:22:59.559Z,17.46
2018-09-28T01:25:26.343Z,17.45
2018-09-28T01:27:55.630Z,17.52
2018-09-28T01:30:22.273Z,17.57
2018-09-28T01:32:48.924Z,17.57
2018-09-28T01:35:16.988Z,17.58
2018-09-28T01:37:42.299Z,17.57
2018-09-28T01:40:08.960Z,17.62
2018-09-28T01:42:35.682Z,17.68
2018-09-28T01:45:02.388Z,17.69
2018-09-28T01:47:29.036Z,17.68
2018-09-28T01:49:55.691Z,17.73
2018-09-28T01:52:22.426Z,17.72
2018-09-28T01:54:52.007Z,17.72
2018-09-28T01:57:18.645Z,17.78
2018-09-28T01:59:48.253Z,17.77
2018-09-28T02:02:14.919Z,17.80
2018-09-28T02:04:42.821Z,17.81
2018-09-28T02:07:08.266Z,17.86
2018-09-28T02:09:34.906Z,17.81
2018-09-28T02:12:01.604Z,17.87
2018-09-28T02:14:28.342Z,17.89
2018-09-28T02:16:55.023Z,17.87
2018-09-28T02:19:21.724Z,17.89
2018-09-28T02:21:48.414Z,17.89
2018-09-28T02:24:15.359Z,17.91
2018-09-28T02:26:45.173Z,17.96
2018-09-28T02:29:11.831Z,17.97
2018-09-28T02:31:38.572Z,18.01
2018-09-28T02:34:05.177Z,18.08
2018-09-28T02:36:31.834Z,17.84
2018-09-28T02:38:58.574Z,18.08
2018-09-28T02:41:25.265Z,18.14
2018-09-28T02:43:51.989Z,18.35
2018-09-28T02:46:18.646Z,18.28
2018-09-28T02:48:45.297Z,18.20
2018-09-28T02:51:11.948Z,18.16
2018-09-28T02:53:38.621Z,18.11
2018-09-28T02:56:05.289Z,18.11
2018-09-28T02:58:32.120Z,18.06
2018-09-28T03:01:01.035Z,18.06
2018-09-28T03:03:27.671Z,18.09
2018-09-28T03:05:54.322Z,18.09
2018-09-28T03:08:21.048Z,18.07
2018-09-28T03:10:47.667Z,18.05
2018-09-28T03:13:14.343Z,17.98
2018-09-28T03:15:42.396Z,18.21
2018-09-28T03:18:07.607Z,18.37
2018-09-28T03:20:34.270Z,18.44
2018-09-28T03:23:02.647Z,18.56
2018-09-28T03:25:27.623Z,18.65
2018-09-28T03:27:54.258Z,18.97
2018-09-28T03:30:21.018Z,19.00
2018-09-28T03:32:47.708Z,18.93
2018-09-28T03:35:14.432Z,18.98
2018-09-28T03:37:43.071Z,18.76
2018-09-28T03:40:07.792Z,18.36
2018-09-28T03:42:34.511Z,18.13
2018-09-28T03:45:01.123Z,17.98
2018-09-28T03:47:27.771Z,17.91
2018-09-28T03:49:54.465Z,17.88
2018-09-28T03:52:21.161Z,17.91
2018-09-28T03:54:47.874Z,17.87
2018-09-28T03:57:14.518Z,17.86
2018-09-28T03:59:41.294Z,17.82
2018-09-28T04:02:07.913Z,17.80
2018-09-28T04:04:37.577Z,17.91
2018-09-28T04:07:04.261Z,18.07
2018-09-28T04:09:30.921Z,17.95
2018-09-28T04:11:57.662Z,17.90
2018-09-28T04:14:25.680Z,17.99
2018-09-28T04:16:50.949Z,18.03
2018-09-28T04:19:17.630Z,18.53
2018-09-28T04:21:44.311Z,18.02
2018-09-28T04:24:10.992Z,17.98
2018-09-28T04:26:37.683Z,18.06
2018-09-28T04:29:05.733Z,18.09
2018-09-28T04:31:30.979Z,18.14
2018-09-28T04:33:57.719Z,18.18
2018-09-28T04:36:24.418Z,18.17
2018-09-28T04:38:51.040Z,18.12
2018-09-28T04:41:19.070Z,18.06
2018-09-28T04:43:44.405Z,18.13
2018-09-28T04:46:11.053Z,18.08
2018-09-28T04:48:39.528Z,18.02
2018-09-28T04:51:06.275Z,18.01
2018-09-28T04:53:32.968Z,17.99
2018-09-28T04:55:59.676Z,17.92
2018-09-28T04:58:26.319Z,17.82
2018-09-28T05:00:54.302Z,17.69
2018-09-28T05:03:19.628Z,17.71
2018-09-28T05:05:46.280Z,17.57
2018-09-28T05:08:12.943Z,17.46
2018-09-28T05:10:39.626Z,17.40
2018-09-28T05:13:06.341Z,17.30
2018-09-28T05:15:32.929Z,17.20
2018-09-28T05:17:59.627Z,17.16
2018-09-28T05:20:26.313Z,17.02
2018-09-28T05:22:52.989Z,17.07
2018-09-28T05:25:19.784Z,16.96
2018-09-28T05:27:46.408Z,16.90
2018-09-28T05:30:13.063Z,17.02
2018-09-28T05:32:41.285Z,16.99
2018-09-28T05:35:06.425Z,16.93
2018-09-28T05:37:33.067Z,16.83
2018-09-28T05:39:59.773Z,16.96
2018-09-28T05:42:26.441Z,16.75
2018-09-28T05:44:53.202Z,16.66
2018-09-28T05:47:19.887Z,16.83
2018-09-28T05:49:46.583Z,16.80
2018-09-28T05:52:13.232Z,16.79
2018-09-28T05:54:39.885Z,16.83
2018-09-28T05:57:06.589Z,16.90
2018-09-28T05:59:33.224Z,16.77
2018-09-28T06:01:59.872Z,16.97
2018-09-28T06:04:26.829Z,17.59
2018-09-28T06:06:53.525Z,17.21
2018-09-28T06:09:20.254Z,17.39
2018-09-28T06:11:46.907Z,17.36
2018-09-28T06:14:13.680Z,17.90
2018-09-28T06:16:40.336Z,17.49
2018-09-28T06:19:10.033Z,17.74
2018-09-28T06:21:36.707Z,17.93
2018-09-28T06:24:03.343Z,17.77
2018-09-28T06:26:30.118Z,17.75
2018-09-28T06:28:56.781Z,18.02
2018-09-28T06:31:24.857Z,17.76
2018-09-28T06:33:52.704Z,17.66
2018-09-28T06:36:19.424Z,17.71
2018-09-28T06:38:46.487Z,17.54
2018-09-28T06:41:13.146Z,17.58
2018-09-28T06:43:39.889Z,17.41
2018-09-28T06:46:07.574Z,17.47
2018-09-28T06:48:34.178Z,17.37
2018-09-28T06:51:00.925Z,17.27
2018-09-28T06:53:30.797Z,17.08
2018-09-28T06:55:56.231Z,17.32
2018-09-28T06:58:23.036Z,17.26
2018-09-28T07:00:49.729Z,17.42
2018-09-28T07:03:16.502Z,17.34
2018-09-28T07:05:43.169Z,17.23
2018-09-28T07:08:09.993Z,17.17
2018-09-28T07:10:36.662Z,17.36
2018-09-28T07:13:03.335Z,17.28
2018-09-28T07:15:30.002Z,17.03
2018-09-28T07:17:56.766Z,17.01
2018-09-28T07:20:23.424Z,16.87
2018-09-28T07:22:50.466Z,17.17
2018-09-28T07:25:17.122Z,16.98
2018-09-28T07:27:43.735Z,17.07
2018-09-28T07:30:10.454Z,17.17
2018-09-28T07:32:37.149Z,17.00
2018-09-28T07:35:03.787Z,17.07
2018-09-28T07:37:30.645Z,16.88
2018-09-28T07:39:57.298Z,16.74
2018-09-28T07:42:24.137Z,17.02
2018-09-28T07:44:50.916Z,16.73
2018-09-28T07:47:17.604Z,16.74
2018-09-28T07:49:44.461Z,16.84
2018-09-28T07:52:11.229Z,16.65
2018-09-28T07:54:37.896Z,16.35
2018-09-28T07:57:04.552Z,16.43
2018-09-28T07:59:31.218Z,16.36
2018-09-28T08:01:57.945Z,16.37
2018-09-28T08:04:24.635Z,16.37
2018-09-28T08:06:51.287Z,16.47
2018-09-28T08:09:22.940Z,16.49
2018-09-28T08:11:48.249Z,16.38
2018-09-28T08:14:14.942Z,15.93
2018-09-28T08:16:41.545Z,16.28
2018-09-28T08:19:08.210Z,16.52
2018-09-28T08:21:34.847Z,16.58
2018-09-28T08:24:01.591Z,16.54
2018-09-28T08:26:29.624Z,16.56
2018-09-28T08:28:57.734Z,16.26
2018-09-28T08:31:24.397Z,16.55
2018-09-28T08:33:51.112Z,16.49
2018-09-28T08:36:18.871Z,16.80
2018-09-28T08:38:45.525Z,16.74
2018-09-28T08:41:12.154Z,16.42
2018-09-28T08:43:38.909Z,16.49
2018-09-28T08:46:05.507Z,16.58
2018-09-28T08:48:32.153Z,16.60
2018-09-28T08:50:59.776Z,16.82
2018-09-28T08:53:26.497Z,16.92
2018-09-28T08:55:53.287Z,16.96
2018-09-28T08:58:19.975Z,16.93
2018-09-28T09:00:46.745Z,16.87
2018-09-28T09:03:13.400Z,16.92
2018-09-28T09:05:40.250Z,16.79
2018-09-28T09:08:07.026Z,16.53
2018-09-28T09:10:33.717Z,16.56
2018-09-28T09:13:00.450Z,16.55
2018-09-28T09:15:27.090Z,16.52
2018-09-28T09:17:53.875Z,16.57
2018-09-28T09:20:21.926Z,16.47
2018-09-28T09:22:47.572Z,16.62
2018-09-28T09:25:14.282Z,16.46
2018-09-28T09:27:41.031Z,16.38
2018-09-28T09:30:07.821Z,16.32
2018-09-28T09:32:34.535Z,16.41
2018-09-28T09:35:01.250Z,16.28
2018-09-28T09:37:27.926Z,16.30
2018-09-28T09:39:54.656Z,16.18
2018-09-28T09:42:22.864Z,15.76
2018-09-28T09:44:48.079Z,15.96
2018-09-28T09:47:14.809Z,15.87
2018-09-28T09:49:41.575Z,15.78
2018-09-28T09:52:08.190Z,15.71
2018-09-28T09:54:34.930Z,15.80
2018-09-28T09:57:01.921Z,15.57
2018-09-28T09:59:30.852Z,15.42
2018-09-28T10:01:55.314Z,15.28
2018-09-28T10:04:21.968Z,15.35
2018-09-28T10:06:48.725Z,15.13
2018-09-28T10:09:15.309Z,15.13
2018-09-28T10:11:42.112Z,15.20
2018-09-28T10:14:08.774Z,15.24
2018-09-28T10:16:35.550Z,14.91
2018-09-28T10:19:02.226Z,14.96
2018-09-28T10:21:28.952Z,15.09
2018-09-28T10:23:55.671Z,15.04
2018-09-28T10:26:22.627Z,14.94
2018-09-28T10:28:49.303Z,14.92
2018-09-28T10:31:15.957Z,14.88
2018-09-28T10:33:42.752Z,14.77
2018-09-28T10:36:09.464Z,14.43
2018-09-28T10:38:36.246Z,14.56
2018-09-28T10:41:02.965Z,14.69
2018-09-28T10:43:29.596Z,14.74
2018-09-28T10:45:56.325Z,14.32
2018-09-28T10:48:23.034Z,14.25
2018-09-28T10:50:49.739Z,14.37
2018-09-28T10:53:16.443Z,14.33
2018-09-28T10:55:43.129Z,14.67
2018-09-28T10:58:09.895Z,14.37
2018-09-28T11:00:36.562Z,14.29
2018-09-28T11:03:03.304Z,14.69
2018-09-28T11:05:29.992Z,14.32
2018-09-28T11:07:56.632Z,13.90
2018-09-28T11:10:23.486Z,13.79
2018-09-28T11:12:50.028Z,14.30
2018-09-28T11:15:16.918Z,14.17
2018-09-28T11:17:43.441Z,14.37
2018-09-28T11:20:10.272Z,13.87
2018-09-28T11:22:36.957Z,14.85
2018-09-28T11:25:07.888Z,14.87
2018-09-28T11:27:32.586Z,14.84
2018-09-28T11:29:59.331Z,15.16
2018-09-28T11:32:29.019Z,14.83
2018-09-28T11:34:55.697Z,14.83
2018-09-28T11:37:22.482Z,14.57
2018-09-28T11:39:49.240Z,14.86
2018-09-28T11:42:15.993Z,14.43
2018-09-28T11:44:42.666Z,14.70
2018-09-28T11:47:09.361Z,14.58
2018-09-28T11:49:36.114Z,13.91
2018-09-28T11:52:02.883Z,14.19
2018-09-28T11:54:29.447Z,14.00
2018-09-28T11:56:56.113Z,14.17
2018-09-28T11:59:22.812Z,14.50
2018-09-28T12:01:49.604Z,13.96
2018-09-28T12:04:16.260Z,14.60
2018-09-28T12:06:42.993Z,14.46
2018-09-28T12:09:09.686Z,14.26
2018-09-28T12:11:36.491Z,13.78
2018-09-28T12:14:03.167Z,14.38
2018-09-28T12:16:29.858Z,14.64
2018-09-28T12:18:58.661Z,14.33
2018-09-28T12:21:23.263Z,14.29
2018-09-28T12:23:49.960Z,14.57
2018-09-28T12:26:16.597Z,14.31
2018-09-28T12:28:43.714Z,13.88
2018-09-28T12:31:10.419Z,13.72
2018-09-28T12:33:37.133Z,13.90
2018-09-28T12:36:03.796Z,14.14
2018-09-28T12:38:30.462Z,13.95
2018-09-28T12:40:57.197Z,14.05
2018-09-28T12:43:23.843Z,14.00
2018-09-28T12:45:50.483Z,13.80
2018-09-28T12:48:17.160Z,13.85
2018-09-28T12:50:43.822Z,14.00
2018-09-28T12:53:10.591Z,13.62
2018-09-28T12:55:40.609Z,13.73
2018-09-28T12:58:07.303Z,13.51
2018-09-28T13:00:34.288Z,13.44
2018-09-28T13:03:01.036Z,13.71
2018-09-28T13:05:27.771Z,13.80
2018-09-28T13:07:54.521Z,13.56
2018-09-28T13:10:21.373Z,13.82
2018-09-28T13:12:48.123Z,13.24
2018-09-28T13:15:14.932Z,13.38
2018-09-28T13:17:45.829Z,13.06
2018-09-28T13:20:12.453Z,13.36
2018-09-28T13:22:39.167Z,13.52
2018-09-28T13:25:05.822Z,13.34
2018-09-28T13:27:32.528Z,13.22
2018-09-28T13:29:59.591Z,13.17
2018-09-28T13:32:26.431Z,13.04
2018-09-28T13:34:53.030Z,12.90
2018-09-28T13:37:19.681Z,13.03
2018-09-28T13:39:46.467Z,13.12
2018-09-28T13:42:13.214Z,12.94
2018-09-28T13:44:39.840Z,13.11
2018-09-28T13:47:06.471Z,12.98
2018-09-28T13:49:33.132Z,12.81
2018-09-28T13:52:00.422Z,13.02
2018-09-28T13:54:30.376Z,12.95
2018-09-28T13:56:57.005Z,12.97
2018-09-28T13:59:23.664Z,12.99
2018-09-28T14:01:50.379Z,12.99
2018-09-28T14:04:17.081Z,12.80
2018-09-28T14:06:45.099Z,12.96
2018-09-28T14:09:10.349Z,12.83
2018-09-28T14:11:37.095Z,12.77
2018-09-28T14:14:05.953Z,12.48
2018-09-28T14:16:30.433Z,12.60
2018-09-28T14:18:57.040Z,12.06
2018-09-28T14:21:23.698Z,12.24
2018-09-28T14:23:50.349Z,12.19
2018-09-28T14:26:18.564Z,11.93
2018-09-28T14:28:43.683Z,12.06
2018-09-28T14:31:10.279Z,12.02
2018-09-28T14:33:36.946Z,12.14
2018-09-28T14:36:09.066Z,12.02
2018-09-28T14:38:33.857Z,11.99
2018-09-28T14:41:00.469Z,11.99
2018-09-28T14:43:27.206Z,11.99
2018-09-28T14:45:53.877Z,11.84
2018-09-28T14:48:22.584Z,11.84
2018-09-28T14:50:47.322Z,11.69
2018-09-28T14:53:13.947Z,11.99
2018-09-28T14:55:40.575Z,11.78
2018-09-28T14:58:07.280Z,11.83
2018-09-28T15:00:35.011Z,11.70
2018-09-28T15:03:00.574Z,11.85
2018-09-28T15:05:34.309Z,11.72
2018-09-28T15:08:00.966Z,11.79
2018-09-28T15:10:27.676Z,11.83
2018-09-28T15:12:54.253Z,11.83
2018-09-28T15:15:20.989Z,11.67
2018-09-28T15:17:47.574Z,11.71
2018-09-28T15:20:14.307Z,11.67
2018-09-28T15:22:40.946Z,11.70
2018-09-28T15:25:08.889Z,11.59
2018-09-28T15:27:34.309Z,11.67
2018-09-28T15:30:01.921Z,11.63
2018-09-28T15:32:28.598Z,11.60
2018-09-28T15:34:55.292Z,11.61
2018-09-28T15:37:21.942Z,11.58
2018-09-28T15:39:48.588Z,11.57
2018-09-28T15:42:15.307Z,11.61
2018-09-28T15:44:45.018Z,11.47
2018-09-28T15:47:11.800Z,11.57
2018-09-28T15:49:38.456Z,11.63
2018-09-28T15:52:08.002Z,11.56
2018-09-28T15:54:34.642Z,11.59
2018-09-28T15:57:01.294Z,11.61
2018-09-28T15:59:27.964Z,11.62
2018-09-28T16:01:54.672Z,11.69
2018-09-28T16:04:21.314Z,11.68
2018-09-28T16:06:47.960Z,11.73
2018-09-28T16:09:14.673Z,11.74
2018-09-28T16:11:41.324Z,11.78
2018-09-28T16:14:07.972Z,11.80
2018-09-28T16:16:34.647Z,11.88
2018-09-28T16:19:01.289Z,11.92
2018-09-28T16:21:27.929Z,11.95
2018-09-28T16:23:54.575Z,11.97
2018-09-28T16:26:24.021Z,12.00
2018-09-28T16:28:52.388Z,12.02
2018-09-28T16:31:17.473Z,12.08
2018-09-28T16:33:44.122Z,12.12
2018-09-28T16:36:10.846Z,12.11
2018-09-28T16:38:37.419Z,12.16
2018-09-28T16:41:04.124Z,12.21
2018-09-28T16:43:30.785Z,12.22
2018-09-28T16:45:57.429Z,12.25
2018-09-28T16:48:24.104Z,12.28
2018-09-28T16:50:50.750Z,12.31
2018-09-28T16:53:17.553Z,12.34
2018-09-28T16:55:44.246Z,12.38
2018-09-28T16:58:10.892Z,12.43
2018-09-28T17:00:37.601Z,12.46
2018-09-28T17:03:04.244Z,12.51
2018-09-28T17:05:30.931Z,12.56
2018-09-28T17:07:57.575Z,12.59
2018-09-28T17:10:24.207Z,12.66
2018-09-28T17:12:50.868Z,12.66
2018-09-28T17:15:17.497Z,12.73
2018-09-28T17:17:44.158Z,12.74
2018-09-28T17:20:10.803Z,12.73
2018-09-28T17:22:37.460Z,12.80
2018-09-28T17:25:04.100Z,12.79
2018-09-28T17:27:30.749Z,12.83
2018-09-28T17:29:59.392Z,12.84
2018-09-28T17:32:24.092Z,12.83
2018-09-28T17:34:50.739Z,12.81
2018-09-28T17:37:17.388Z,12.82
2018-09-28T17:39:44.029Z,12.78
2018-09-28T17:42:10.698Z,12.75
2018-09-28T17:44:37.343Z,12.73
2018-09-28T17:47:03.997Z,12.78
2018-09-28T17:49:32.063Z,12.72
2018-09-28T17:51:57.286Z,12.71
2018-09-28T17:54:23.983Z,12.69
2018-09-28T17:56:53.538Z,12.71
2018-09-28T17:59:20.238Z,12.73
2018-09-28T18:01:46.879Z,12.75
2018-09-28T18:04:13.614Z,12.77
2018-09-28T18:06:40.279Z,12.81
2018-09-28T18:09:08.018Z,12.84
2018-09-28T18:11:38.685Z,12.89
2018-09-28T18:14:03.278Z,12.88
2018-09-28T18:16:29.893Z,12.95
2018-09-28T18:18:56.553Z,12.93
2018-09-28T18:21:23.294Z,13.00
2018-09-28T18:23:49.916Z,13.00
2018-09-28T18:26:16.668Z,13.05
2018-09-28T18:28:44.484Z,13.08
2018-09-28T18:31:09.975Z,13.11
2018-09-28T18:33:36.690Z,13.13
2018-09-28T18:36:03.322Z,13.13
2018-09-28T18:38:30.025Z,13.14
2018-09-28T18:40:56.687Z,13.17
2018-09-28T18:43:26.159Z,13.19
2018-09-28T18:45:52.861Z,13.20
2018-09-28T18:48:19.572Z,13.20
2018-09-28T18:50:47.563Z,13.20
2018-09-28T18:53:12.877Z,13.28
2018-09-28T18:55:39.534Z,13.25
2018-09-28T18:58:06.207Z,13.26
2018-09-28T19:00:32.883Z,13.29
2018-09-28T19:03:00.622Z,13.31
2018-09-28T19:05:28.639Z,13.33
2018-09-28T19:07:54.051Z,13.34
2018-09-28T19:10:20.699Z,13.36
2018-09-28T19:12:47.454Z,13.40
2018-09-28T19:15:16.534Z,13.40
2018-09-28T19:17:43.223Z,13.41
2018-09-28T19:20:09.872Z,13.43
2018-09-28T19:22:36.513Z,13.43
2018-09-28T19:25:03.188Z,13.47
2018-09-28T19:27:29.859Z,13.50
2018-09-28T19:29:56.598Z,13.48
2018-09-28T19:32:24.627Z,13.54
2018-09-28T19:34:49.936Z,13.54
2018-09-28T19:37:19.770Z,13.55
2018-09-28T19:39:46.537Z,13.62
2018-09-28T19:42:13.291Z,13.61
2018-09-28T19:44:42.845Z,13.64
2018-09-28T19:47:09.484Z,13.67
2018-09-28T19:49:36.304Z,13.65
2018-09-28T19:52:02.942Z,13.68
2018-09-28T19:54:29.616Z,13.74
2018-09-28T19:56:56.307Z,13.74
2018-09-28T19:59:22.961Z,13.75
2018-09-28T20:01:49.604Z,13.75
2018-09-28T20:04:16.370Z,13.78
2018-09-28T20:06:43.008Z,13.78
2018-09-28T20:09:11.070Z,13.82
2018-09-28T20:11:36.347Z,13.84
2018-09-28T20:14:02.994Z,13.89
2018-09-28T20:16:29.663Z,13.90
2018-09-28T20:18:56.441Z,13.96
2018-09-28T20:21:23.187Z,13.99
2018-09-28T20:23:49.782Z,13.97
2018-09-28T20:26:16.425Z,14.03
2018-09-28T20:28:43.095Z,14.04
2018-09-28T20:31:09.749Z,14.09
2018-09-28T20:33:36.434Z,14.07
2018-09-28T20:36:03.196Z,14.13
2018-09-28T20:38:29.870Z,14.15
2018-09-28T20:40:59.766Z,14.22
2018-09-28T20:43:27.626Z,14.28
2018-09-28T20:45:53.167Z,14.32
2018-09-28T20:48:19.882Z,14.38
2018-09-28T20:50:49.423Z,14.39
2018-09-28T20:53:16.085Z,14.44
2018-09-28T20:55:42.735Z,14.54
2018-09-28T20:58:09.380Z,14.58
2018-09-28T21:00:36.018Z,14.59
2018-09-28T21:03:02.810Z,14.63
2018-09-28T21:05:29.547Z,14.69
2018-09-28T21:07:56.242Z,14.72
2018-09-28T21:10:22.894Z,14.76
2018-09-28T21:12:49.535Z,14.78
2018-09-28T21:15:16.653Z,14.84
2018-09-28T21:17:45.169Z,14.86
2018-09-28T21:20:10.093Z,14.91
2018-09-28T21:22:36.885Z,14.96
2018-09-28T21:25:03.522Z,14.98
2018-09-28T21:27:30.181Z,15.03
2018-09-28T21:29:56.878Z,15.05
2018-09-28T21:32:23.577Z,15.10
2018-09-28T21:34:50.214Z,15.16
2018-09-28T21:37:16.897Z,15.22
2018-09-28T21:39:43.592Z,15.20
2018-09-28T21:42:10.230Z,15.25
2018-09-28T21:44:36.867Z,15.31
2018-09-28T21:47:03.504Z,15.33
2018-09-28T21:49:30.156Z,15.34
2018-09-28T21:51:56.794Z,15.41
2018-09-28T21:54:24.954Z,15.49
2018-09-28T21:56:50.325Z,15.53
2018-09-28T21:59:17.102Z,15.62
2018-09-28T22:01:43.754Z,15.64
2018-09-28T22:04:10.484Z,15.69
2018-09-28T22:06:37.174Z,15.75
2018-09-28T22:09:04.038Z,15.83
2018-09-28T22:11:30.775Z,15.87
2018-09-28T22:13:57.494Z,15.91
2018-09-28T22:16:24.193Z,15.92
2018-09-28T22:18:50.835Z,15.97
2018-09-28T22:21:17.737Z,15.97
2018-09-28T22:23:44.362Z,16.04
2018-09-28T22:26:11.064Z,16.03
2018-09-28T22:28:37.693Z,16.07
2018-09-28T22:33:34.246Z,16.12
2018-09-28T22:36:00.886Z,16.13
2018-09-28T22:38:28.165Z,16.20
2018-09-28T22:40:54.906Z,16.22
2018-09-28T22:43:22.921Z,16.23
2018-09-28T22:45:48.228Z,16.28
2018-09-28T22:48:14.923Z,16.29
2018-09-28T22:50:42.896Z,16.32
2018-09-28T22:53:09.614Z,16.35
2018-09-28T22:55:34.983Z,16.42
2018-09-28T22:58:01.679Z,16.44
2018-09-28T23:00:30.488Z,16.44
2018-09-28T23:02:54.964Z,16.48
2018-09-28T23:05:21.604Z,16.56
2018-09-28T23:07:49.994Z,16.58
2018-09-28T23:10:15.017Z,16.65
2018-09-28T23:12:41.658Z,16.69
2018-09-28T23:15:09.771Z,16.71
2018-09-28T23:17:35.065Z,16.80
2018-09-28T23:20:01.673Z,16.91
2018-09-28T23:22:28.355Z,16.93
2018-09-28T23:24:56.877Z,16.94
2018-09-28T23:27:21.772Z,17.00
2018-09-28T23:29:51.751Z,17.07
2018-09-28T23:32:18.464Z,17.11
2018-09-28T23:34:46.314Z,17.21
2018-09-28T23:37:11.914Z,17.22
2018-09-28T23:39:38.565Z,17.30
2018-09-28T23:42:05.350Z,17.41
2018-09-28T23:44:31.996Z,17.45
2018-09-28T23:46:58.763Z,17.50
2018-09-28T23:49:25.467Z,17.54
2018-09-28T23:51:52.116Z,17.59
2018-09-28T23:54:18.883Z,17.65
2018-09-28T23:56:45.575Z,17.67
2018-09-28T23:59:12.364Z,17.70
